sensor_id;sensor_type;location;lat;lon;timestamp;temperature;humidity
35613;DHT22;22054;51.646;7.078;2022-12-29T08:51:57;10.60;99.90
35613;DHT22;22054;51.646;7.078;2022-12-29T08:54:25;10.60;99.90
35613;DHT22;22054;51.646;7.078;2022-12-29T08:56:51;10.60;99.90
35613;DHT22;22054;51.646;7.078;2022-12-29T08:59:17;10.60;99.90
35613;DHT22;22054;51.646;7.078;2022-12-29T09:01:42;10.60;99.90
35613;DHT22;22054;51.646;7.078;2022-12-29T09:04:08;10.70;99.90
35613;DHT22;22054;51.646;7.078;2022-12-29T09:06:34;10.70;94.20
35613;DHT22;22054;51.646;7.078;2022-12-29T09:09:01;11.00;99.90
35613;DHT22;22054;51.646;7.078;2022-12-29T09:11:27;11.00;99.90
35613;DHT22;22054;51.646;7.078;2022-12-29T09:13:53;11.10;96.50
35613;DHT22;22054;51.646;7.078;2022-12-29T09:16:22;11.30;99.40
35613;DHT22;22054;51.646;7.078;2022-12-29T09:18:49;11.20;99.90
35613;DHT22;22054;51.646;7.078;2022-12-29T09:21:15;11.30;94.50
35613;DHT22;22054;51.646;7.078;2022-12-29T09:23:41;11.30;73.80
35613;DHT22;22054;51.646;7.078;2022-12-29T09:26:08;11.40;99.90
35613;DHT22;22054;51.646;7.078;2022-12-29T09:28:34;11.30;99.90
35613;DHT22;22054;51.646;7.078;2022-12-29T09:31:00;11.50;95.10
35613;DHT22;22054;51.646;7.078;2022-12-29T09:33:26;11.40;81.80
35613;DHT22;22054;51.646;7.078;2022-12-29T09:35:54;11.40;53.60
35613;DHT22;22054;51.646;7.078;2022-12-29T09:38:22;11.40;28.20
35613;DHT22;22054;51.646;7.078;2022-12-29T09:40:51;11.40;48.00
35613;DHT22;22054;51.646;7.078;2022-12-29T09:46:26;11.20;54.00
35613;DHT22;22054;51.646;7.078;2022-12-29T09:51:44;11.20;79.10
35613;DHT22;22054;51.646;7.078;2022-12-29T09:54:26;11.20;44.30
35613;DHT22;22054;51.646;7.078;2022-12-29T09:57:20;11.30;77.60
35613;DHT22;22054;51.646;7.078;2022-12-29T09:59:50;11.20;86.10
35613;DHT22;22054;51.646;7.078;2022-12-29T10:02:38;11.10;84.30
35613;DHT22;22054;51.646;7.078;2022-12-29T10:11:01;11.30;99.30
35613;DHT22;22054;51.646;7.078;2022-12-29T10:14:10;11.30;96.20
35613;DHT22;22054;51.646;7.078;2022-12-29T10:23:12;11.50;55.00
35613;DHT22;22054;51.646;7.078;2022-12-29T10:25:49;11.50;45.40
35613;DHT22;22054;51.646;7.078;2022-12-29T10:28:43;11.60;43.70
35613;DHT22;22054;51.646;7.078;2022-12-29T10:31:16;11.60;47.80
35613;DHT22;22054;51.646;7.078;2022-12-29T10:33:49;11.60;56.50
35613;DHT22;22054;51.646;7.078;2022-12-29T10:36:44;11.50;29.90
35613;DHT22;22054;51.646;7.078;2022-12-29T10:39:30;11.50;33.90
35613;DHT22;22054;51.646;7.078;2022-12-29T10:42:11;11.40;43.70
35613;DHT22;22054;51.646;7.078;2022-12-29T10:44:41;11.40;56.00
35613;DHT22;22054;51.646;7.078;2022-12-29T10:47:17;11.40;40.70
35613;DHT22;22054;51.646;7.078;2022-12-29T10:49:46;11.40;36.90
35613;DHT22;22054;51.646;7.078;2022-12-29T10:52:16;11.70;31.90
35613;DHT22;22054;51.646;7.078;2022-12-29T10:54:50;11.60;19.50
35613;DHT22;22054;51.646;7.078;2022-12-29T10:57:36;11.50;1.00
35613;DHT22;22054;51.646;7.078;2022-12-29T11:00:21;11.50;1.00
35613;DHT22;22054;51.646;7.078;2022-12-29T11:03:38;11.50;1.00
35613;DHT22;22054;51.646;7.078;2022-12-29T11:09:34;11.40;1.00
35613;DHT22;22054;51.646;7.078;2022-12-29T11:11:37;11.50;1.00
35613;DHT22;22054;51.646;7.078;2022-12-29T11:14:11;11.30;1.00
35613;DHT22;22054;51.646;7.078;2022-12-29T11:16:39;11.30;1.00
35613;DHT22;22054;51.646;7.078;2022-12-29T11:19:23;11.50;1.00
35613;DHT22;22054;51.646;7.078;2022-12-29T11:21:51;11.40;1.00
35613;DHT22;22054;51.646;7.078;2022-12-29T11:24:24;11.50;1.00
35613;DHT22;22054;51.646;7.078;2022-12-29T11:26:55;11.30;1.00
35613;DHT22;22054;51.646;7.078;2022-12-29T11:29:38;11.30;1.00
35613;DHT22;22054;51.646;7.078;2022-12-29T11:32:20;11.40;1.00
35613;DHT22;22054;51.646;7.078;2022-12-29T11:34:50;11.30;1.00
35613;DHT22;22054;51.646;7.078;2022-12-29T11:37:29;11.40;1.00
35613;DHT22;22054;51.646;7.078;2022-12-29T11:39:59;11.30;1.00
35613;DHT22;22054;51.646;7.078;2022-12-29T11:43:00;11.40;1.00
35613;DHT22;22054;51.646;7.078;2022-12-29T11:45:32;11.30;1.00
35613;DHT22;22054;51.646;7.078;2022-12-29T11:48:17;11.10;1.00
35613;DHT22;22054;51.646;7.078;2022-12-29T11:50:51;11.30;1.00
35613;DHT22;22054;51.646;7.078;2022-12-29T11:53:23;11.30;1.00
35613;DHT22;22054;51.646;7.078;2022-12-29T11:56:10;11.30;1.00
35613;DHT22;22054;51.646;7.078;2022-12-29T11:58:39;11.30;1.00
35613;DHT22;22054;51.646;7.078;2022-12-29T12:01:28;11.30;1.00
35613;DHT22;22054;51.646;7.078;2022-12-29T12:04:03;11.30;1.00
35613;DHT22;22054;51.646;7.078;2022-12-29T12:06:36;11.40;1.00
35613;DHT22;22054;51.646;7.078;2022-12-29T12:09:14;11.50;1.00
35613;DHT22;22054;51.646;7.078;2022-12-29T12:11:43;11.40;1.00
35613;DHT22;22054;51.646;7.078;2022-12-29T12:14:21;11.60;1.00
35613;DHT22;22054;51.646;7.078;2022-12-29T12:16:55;11.20;1.00
35613;DHT22;22054;51.646;7.078;2022-12-29T12:19:55;11.30;1.00
35613;DHT22;22054;51.646;7.078;2022-12-29T12:22:34;11.30;1.00
35613;DHT22;22054;51.646;7.078;2022-12-29T12:30:38;11.30;1.00
35613;DHT22;22054;51.646;7.078;2022-12-29T12:33:27;11.40;1.00
35613;DHT22;22054;51.646;7.078;2022-12-29T12:36:21;11.40;1.00
35613;DHT22;22054;51.646;7.078;2022-12-29T12:41:43;11.40;1.00
35613;DHT22;22054;51.646;7.078;2022-12-29T13:01:42;11.40;1.00
35613;DHT22;22054;51.646;7.078;2022-12-29T13:10:49;11.30;1.00
35613;DHT22;22054;51.646;7.078;2022-12-29T13:19:19;11.20;1.00
35613;DHT22;22054;51.646;7.078;2022-12-29T13:21:59;11.20;1.00
35613;DHT22;22054;51.646;7.078;2022-12-29T13:27:39;11.20;1.00
35613;DHT22;22054;51.646;7.078;2022-12-29T13:30:19;11.30;1.00
35613;DHT22;22054;51.646;7.078;2022-12-29T13:38:36;11.30;1.00
35613;DHT22;22054;51.646;7.078;2022-12-29T13:41:14;11.30;1.00
35613;DHT22;22054;51.646;7.078;2022-12-29T13:43:45;11.20;1.00
35613;DHT22;22054;51.646;7.078;2022-12-29T13:46:17;11.30;1.00
35613;DHT22;22054;51.646;7.078;2022-12-29T13:49:34;11.50;1.00
35613;DHT22;22054;51.646;7.078;2022-12-29T13:51:47;11.30;1.00
35613;DHT22;22054;51.646;7.078;2022-12-29T13:57:39;11.30;1.00
35613;DHT22;22054;51.646;7.078;2022-12-29T14:00:16;11.30;1.00
35613;DHT22;22054;51.646;7.078;2022-12-29T14:07:47;11.60;1.00
35613;DHT22;22054;51.646;7.078;2022-12-29T14:10:48;11.50;1.00
35613;DHT22;22054;51.646;7.078;2022-12-29T14:13:22;11.50;1.00
35613;DHT22;22054;51.646;7.078;2022-12-29T14:15:57;11.40;1.00
35613;DHT22;22054;51.646;7.078;2022-12-29T14:18:25;11.30;1.00
35613;DHT22;22054;51.646;7.078;2022-12-29T14:20:58;11.30;1.00
35613;DHT22;22054;51.646;7.078;2022-12-29T14:31:54;11.30;1.00
35613;DHT22;22054;51.646;7.078;2022-12-29T14:40:22;11.10;1.00
35613;DHT22;22054;51.646;7.078;2022-12-29T14:42:55;11.10;1.00
35613;DHT22;22054;51.646;7.078;2022-12-29T14:45:28;11.00;1.00
35613;DHT22;22054;51.646;7.078;2022-12-29T14:47:55;10.90;1.00
35613;DHT22;22054;51.646;7.078;2022-12-29T14:50:42;10.90;1.00
35613;DHT22;22054;51.646;7.078;2022-12-29T14:56:11;10.70;1.00
35613;DHT22;22054;51.646;7.078;2022-12-29T14:58:48;10.70;1.00
35613;DHT22;22054;51.646;7.078;2022-12-29T15:01:30;10.70;1.00
35613;DHT22;22054;51.646;7.078;2022-12-29T15:04:34;10.70;1.00
35613;DHT22;22054;51.646;7.078;2022-12-29T15:07:02;10.70;1.00
35613;DHT22;22054;51.646;7.078;2022-12-29T15:09:35;10.80;1.00
35613;DHT22;22054;51.646;7.078;2022-12-29T15:15:37;10.70;1.00
35613;DHT22;22054;51.646;7.078;2022-12-29T15:18:23;10.70;1.00
35613;DHT22;22054;51.646;7.078;2022-12-29T15:20:57;10.80;1.00
35613;DHT22;22054;51.646;7.078;2022-12-29T15:23:25;10.90;1.00
35613;DHT22;22054;51.646;7.078;2022-12-29T15:25:55;10.90;1.00
35613;DHT22;22054;51.646;7.078;2022-12-29T15:28:22;10.60;1.00
35613;DHT22;22054;51.646;7.078;2022-12-29T15:30:54;10.60;1.00
35613;DHT22;22054;51.646;7.078;2022-12-29T15:33:28;10.70;1.00
35613;DHT22;22054;51.646;7.078;2022-12-29T15:35:56;10.80;1.00
35613;DHT22;22054;51.646;7.078;2022-12-29T15:38:25;10.70;1.00
35613;DHT22;22054;51.646;7.078;2022-12-29T15:40:59;10.80;1.00
35613;DHT22;22054;51.646;7.078;2022-12-29T15:43:40;10.80;1.00
35613;DHT22;22054;51.646;7.078;2022-12-29T15:46:12;10.80;1.00
35613;DHT22;22054;51.646;7.078;2022-12-29T15:48:40;11.00;1.00
35613;DHT22;22054;51.646;7.078;2022-12-29T15:51:23;10.80;1.00
35613;DHT22;22054;51.646;7.078;2022-12-29T15:53:54;10.70;1.00
35613;DHT22;22054;51.646;7.078;2022-12-29T15:56:19;10.80;1.00
35613;DHT22;22054;51.646;7.078;2022-12-29T15:58:47;10.70;1.00
35613;DHT22;22054;51.646;7.078;2022-12-29T16:01:33;10.70;1.00
35613;DHT22;22054;51.646;7.078;2022-12-29T16:04:02;10.80;1.00
35613;DHT22;22054;51.646;7.078;2022-12-29T16:06:31;10.70;1.00
35613;DHT22;22054;51.646;7.078;2022-12-29T16:09:19;10.70;1.00
35613;DHT22;22054;51.646;7.078;2022-12-29T16:12:01;10.60;1.00
35613;DHT22;22054;51.646;7.078;2022-12-29T16:17:47;10.60;1.00
35613;DHT22;22054;51.646;7.078;2022-12-29T16:20:20;10.50;1.00
35613;DHT22;22054;51.646;7.078;2022-12-29T16:22:57;10.40;1.00
35613;DHT22;22054;51.646;7.078;2022-12-29T16:25:33;10.40;1.00
35613;DHT22;22054;51.646;7.078;2022-12-29T16:28:01;10.40;1.00
35613;DHT22;22054;51.646;7.078;2022-12-29T16:30:31;10.40;1.00
35613;DHT22;22054;51.646;7.078;2022-12-29T16:33:03;10.30;1.00
35613;DHT22;22054;51.646;7.078;2022-12-29T16:35:44;10.10;75.50
35613;DHT22;22054;51.646;7.078;2022-12-29T16:40:54;9.50;99.90
35613;DHT22;22054;51.646;7.078;2022-12-29T16:43:25;9.30;99.90
35613;DHT22;22054;51.646;7.078;2022-12-29T16:46:15;9.20;99.90
35613;DHT22;22054;51.646;7.078;2022-12-29T16:48:50;9.10;99.90
35613;DHT22;22054;51.646;7.078;2022-12-29T16:51:35;9.10;99.90
35613;DHT22;22054;51.646;7.078;2022-12-29T16:54:02;9.00;99.90
35613;DHT22;22054;51.646;7.078;2022-12-29T16:56:34;9.00;99.90
35613;DHT22;22054;51.646;7.078;2022-12-29T16:59:46;8.90;99.90
35613;DHT22;22054;51.646;7.078;2022-12-29T17:01:58;8.80;99.90
35613;DHT22;22054;51.646;7.078;2022-12-29T17:04:25;8.80;99.90
35613;DHT22;22054;51.646;7.078;2022-12-29T17:06:50;8.70;99.90
35613;DHT22;22054;51.646;7.078;2022-12-29T17:09:27;8.60;99.90
35613;DHT22;22054;51.646;7.078;2022-12-29T17:11:55;8.60;99.90
35613;DHT22;22054;51.646;7.078;2022-12-29T17:17:13;8.50;99.90
35613;DHT22;22054;51.646;7.078;2022-12-29T17:19:45;8.50;99.90
35613;DHT22;22054;51.646;7.078;2022-12-29T17:22:26;8.20;99.90
35613;DHT22;22054;51.646;7.078;2022-12-29T17:24:54;8.10;99.90
35613;DHT22;22054;51.646;7.078;2022-12-29T17:27:22;8.10;99.90
35613;DHT22;22054;51.646;7.078;2022-12-29T17:29:57;8.00;99.90
35613;DHT22;22054;51.646;7.078;2022-12-29T17:32:26;7.90;99.90
35613;DHT22;22054;51.646;7.078;2022-12-29T17:34:51;7.80;99.90
35613;DHT22;22054;51.646;7.078;2022-12-29T17:37:36;7.80;99.90
35613;DHT22;22054;51.646;7.078;2022-12-29T17:40:05;7.70;99.90
35613;DHT22;22054;51.646;7.078;2022-12-29T17:42:34;7.70;99.90
35613;DHT22;22054;51.646;7.078;2022-12-29T17:45:04;7.70;99.90
35613;DHT22;22054;51.646;7.078;2022-12-29T17:47:30;7.70;99.90
35613;DHT22;22054;51.646;7.078;2022-12-29T17:49:56;7.70;99.90
35613;DHT22;22054;51.646;7.078;2022-12-29T17:52:22;7.70;99.90
35613;DHT22;22054;51.646;7.078;2022-12-29T17:54:52;7.80;99.90
35613;DHT22;22054;51.646;7.078;2022-12-29T17:57:19;7.80;99.90
35613;DHT22;22054;51.646;7.078;2022-12-29T17:59:45;7.80;99.90
35613;DHT22;22054;51.646;7.078;2022-12-29T18:02:25;7.90;99.90
35613;DHT22;22054;51.646;7.078;2022-12-29T18:04:52;7.80;99.90
35613;DHT22;22054;51.646;7.078;2022-12-29T18:07:18;7.70;99.90
35613;DHT22;22054;51.646;7.078;2022-12-29T18:09:43;7.70;99.90
35613;DHT22;22054;51.646;7.078;2022-12-29T18:12:26;7.60;99.90
35613;DHT22;22054;51.646;7.078;2022-12-29T18:14:52;7.50;99.90
35613;DHT22;22054;51.646;7.078;2022-12-29T18:17:18;7.50;99.90
35613;DHT22;22054;51.646;7.078;2022-12-29T18:19:44;7.50;99.90
35613;DHT22;22054;51.646;7.078;2022-12-29T18:22:10;7.50;99.90
35613;DHT22;22054;51.646;7.078;2022-12-29T18:24:35;7.50;99.90
35613;DHT22;22054;51.646;7.078;2022-12-29T18:27:10;7.50;99.90
35613;DHT22;22054;51.646;7.078;2022-12-29T18:29:36;7.50;99.90
35613;DHT22;22054;51.646;7.078;2022-12-29T18:32:05;7.60;99.90
35613;DHT22;22054;51.646;7.078;2022-12-29T18:34:32;7.60;99.90
35613;DHT22;22054;51.646;7.078;2022-12-29T18:36:58;7.70;99.90
35613;DHT22;22054;51.646;7.078;2022-12-29T18:39:26;7.60;99.90
35613;DHT22;22054;51.646;7.078;2022-12-29T18:41:51;7.50;99.90
35613;DHT22;22054;51.646;7.078;2022-12-29T18:44:17;7.60;99.90
35613;DHT22;22054;51.646;7.078;2022-12-29T18:46:43;7.60;99.90
35613;DHT22;22054;51.646;7.078;2022-12-29T18:49:08;7.60;99.90
35613;DHT22;22054;51.646;7.078;2022-12-29T18:51:34;7.70;99.90
35613;DHT22;22054;51.646;7.078;2022-12-29T18:54:00;7.70;99.90
35613;DHT22;22054;51.646;7.078;2022-12-29T18:56:30;7.70;99.90
35613;DHT22;22054;51.646;7.078;2022-12-29T18:58:55;7.70;99.90
35613;DHT22;22054;51.646;7.078;2022-12-29T19:01:25;7.80;99.90
35613;DHT22;22054;51.646;7.078;2022-12-29T19:03:55;7.60;99.90
35613;DHT22;22054;51.646;7.078;2022-12-29T19:06:21;7.50;99.90
35613;DHT22;22054;51.646;7.078;2022-12-29T19:08:46;7.60;99.90
35613;DHT22;22054;51.646;7.078;2022-12-29T19:11:12;7.80;99.90
35613;DHT22;22054;51.646;7.078;2022-12-29T19:13:38;7.60;99.90
35613;DHT22;22054;51.646;7.078;2022-12-29T19:16:06;7.50;99.90
35613;DHT22;22054;51.646;7.078;2022-12-29T19:18:33;7.60;99.90
35613;DHT22;22054;51.646;7.078;2022-12-29T19:20:59;7.60;99.90
35613;DHT22;22054;51.646;7.078;2022-12-29T19:23:25;7.70;99.90
35613;DHT22;22054;51.646;7.078;2022-12-29T19:25:53;7.70;99.90
35613;DHT22;22054;51.646;7.078;2022-12-29T19:28:25;7.80;99.90
35613;DHT22;22054;51.646;7.078;2022-12-29T19:30:53;7.70;99.90
35613;DHT22;22054;51.646;7.078;2022-12-29T19:33:23;7.70;99.90
35613;DHT22;22054;51.646;7.078;2022-12-29T19:35:50;7.90;99.90
35613;DHT22;22054;51.646;7.078;2022-12-29T19:38:16;7.80;99.90
35613;DHT22;22054;51.646;7.078;2022-12-29T19:40:47;7.80;99.90
35613;DHT22;22054;51.646;7.078;2022-12-29T19:43:15;7.80;99.90
35613;DHT22;22054;51.646;7.078;2022-12-29T19:45:42;8.00;99.90
35613;DHT22;22054;51.646;7.078;2022-12-29T19:48:14;7.80;99.90
35613;DHT22;22054;51.646;7.078;2022-12-29T19:50:42;7.70;99.90
35613;DHT22;22054;51.646;7.078;2022-12-29T19:53:08;7.90;99.90
35613;DHT22;22054;51.646;7.078;2022-12-29T19:55:34;7.70;99.90
35613;DHT22;22054;51.646;7.078;2022-12-29T19:58:00;7.80;99.90
35613;DHT22;22054;51.646;7.078;2022-12-29T20:00:26;7.80;99.90
35613;DHT22;22054;51.646;7.078;2022-12-29T20:02:51;7.80;99.90
35613;DHT22;22054;51.646;7.078;2022-12-29T20:05:17;7.80;99.90
35613;DHT22;22054;51.646;7.078;2022-12-29T20:07:44;7.80;99.90
35613;DHT22;22054;51.646;7.078;2022-12-29T20:10:09;7.70;99.90
35613;DHT22;22054;51.646;7.078;2022-12-29T20:12:36;7.80;99.90
35613;DHT22;22054;51.646;7.078;2022-12-29T20:15:05;7.70;99.90
35613;DHT22;22054;51.646;7.078;2022-12-29T20:17:31;7.70;99.90
35613;DHT22;22054;51.646;7.078;2022-12-29T20:19:57;7.70;99.90
35613;DHT22;22054;51.646;7.078;2022-12-29T20:22:22;7.80;99.90
35613;DHT22;22054;51.646;7.078;2022-12-29T20:24:48;7.80;99.90
35613;DHT22;22054;51.646;7.078;2022-12-29T20:27:14;7.80;99.90
35613;DHT22;22054;51.646;7.078;2022-12-29T20:29:40;7.80;99.90
35613;DHT22;22054;51.646;7.078;2022-12-29T20:34:38;7.80;99.90
35613;DHT22;22054;51.646;7.078;2022-12-29T20:44:56;7.90;99.90
35613;DHT22;22054;51.646;7.078;2022-12-29T20:47:26;7.90;99.90
35613;DHT22;22054;51.646;7.078;2022-12-29T20:49:52;8.00;99.90
35613;DHT22;22054;51.646;7.078;2022-12-29T20:52:21;8.00;99.90
35613;DHT22;22054;51.646;7.078;2022-12-29T20:54:46;8.00;99.90
35613;DHT22;22054;51.646;7.078;2022-12-29T20:57:12;8.00;99.90
35613;DHT22;22054;51.646;7.078;2022-12-29T20:59:38;7.90;99.90
35613;DHT22;22054;51.646;7.078;2022-12-29T21:02:04;7.90;99.90
35613;DHT22;22054;51.646;7.078;2022-12-29T21:04:29;8.00;99.90
35613;DHT22;22054;51.646;7.078;2022-12-29T21:06:55;8.10;99.90
35613;DHT22;22054;51.646;7.078;2022-12-29T21:09:21;7.90;99.90
35613;DHT22;22054;51.646;7.078;2022-12-29T21:11:47;7.90;99.90
35613;DHT22;22054;51.646;7.078;2022-12-29T21:14:13;7.90;99.90
35613;DHT22;22054;51.646;7.078;2022-12-29T21:16:39;7.90;99.90
35613;DHT22;22054;51.646;7.078;2022-12-29T21:19:04;7.90;99.90
35613;DHT22;22054;51.646;7.078;2022-12-29T21:21:30;7.90;99.90
35613;DHT22;22054;51.646;7.078;2022-12-29T21:23:56;7.90;99.90
35613;DHT22;22054;51.646;7.078;2022-12-29T21:26:29;7.90;99.90
35613;DHT22;22054;51.646;7.078;2022-12-29T21:28:55;7.90;99.90
35613;DHT22;22054;51.646;7.078;2022-12-29T21:31:34;7.80;99.90
35613;DHT22;22054;51.646;7.078;2022-12-29T21:34:03;7.80;99.90
35613;DHT22;22054;51.646;7.078;2022-12-29T21:36:30;7.80;99.90
35613;DHT22;22054;51.646;7.078;2022-12-29T21:38:56;7.70;99.90
35613;DHT22;22054;51.646;7.078;2022-12-29T21:41:25;7.70;99.90
35613;DHT22;22054;51.646;7.078;2022-12-29T21:43:51;7.70;99.90
35613;DHT22;22054;51.646;7.078;2022-12-29T21:46:38;7.70;99.90
35613;DHT22;22054;51.646;7.078;2022-12-29T21:49:06;7.80;99.90
35613;DHT22;22054;51.646;7.078;2022-12-29T21:51:32;7.70;99.90
35613;DHT22;22054;51.646;7.078;2022-12-29T21:54:26;7.70;99.90
35613;DHT22;22054;51.646;7.078;2022-12-29T21:57:12;7.60;99.90
35613;DHT22;22054;51.646;7.078;2022-12-29T22:00:00;7.70;99.90
35613;DHT22;22054;51.646;7.078;2022-12-29T22:02:45;7.70;99.90
35613;DHT22;22054;51.646;7.078;2022-12-29T22:05:29;7.70;99.90
35613;DHT22;22054;51.646;7.078;2022-12-29T22:08:15;7.80;99.90
35613;DHT22;22054;51.646;7.078;2022-12-29T22:10:59;7.80;99.90
35613;DHT22;22054;51.646;7.078;2022-12-29T22:13:49;7.70;99.90
35613;DHT22;22054;51.646;7.078;2022-12-29T22:16:24;7.80;99.90
35613;DHT22;22054;51.646;7.078;2022-12-29T22:18:50;7.80;99.90
35613;DHT22;22054;51.646;7.078;2022-12-29T22:21:16;7.80;99.90
35613;DHT22;22054;51.646;7.078;2022-12-29T22:23:42;7.70;99.90
35613;DHT22;22054;51.646;7.078;2022-12-29T22:26:10;7.70;99.90
35613;DHT22;22054;51.646;7.078;2022-12-29T22:28:38;7.70;99.90
35613;DHT22;22054;51.646;7.078;2022-12-29T22:31:06;7.80;99.90
35613;DHT22;22054;51.646;7.078;2022-12-29T22:33:33;7.80;99.90
35613;DHT22;22054;51.646;7.078;2022-12-29T22:35:58;7.80;99.90
35613;DHT22;22054;51.646;7.078;2022-12-29T22:38:24;7.80;99.90
35613;DHT22;22054;51.646;7.078;2022-12-29T22:40:50;7.70;99.90
35613;DHT22;22054;51.646;7.078;2022-12-29T22:43:16;7.70;99.90
35613;DHT22;22054;51.646;7.078;2022-12-29T22:45:41;7.70;99.90
35613;DHT22;22054;51.646;7.078;2022-12-29T22:48:07;7.70;99.90
35613;DHT22;22054;51.646;7.078;2022-12-29T22:50:33;7.60;99.90
35613;DHT22;22054;51.646;7.078;2022-12-29T22:52:59;7.70;99.90
35613;DHT22;22054;51.646;7.078;2022-12-29T22:55:24;7.60;99.90
35613;DHT22;22054;51.646;7.078;2022-12-29T22:57:50;7.60;99.90
35613;DHT22;22054;51.646;7.078;2022-12-29T23:00:16;7.60;99.90
35613;DHT22;22054;51.646;7.078;2022-12-29T23:02:42;7.60;99.90
35613;DHT22;22054;51.646;7.078;2022-12-29T23:05:08;7.60;99.90
35613;DHT22;22054;51.646;7.078;2022-12-29T23:07:36;7.60;99.90
35613;DHT22;22054;51.646;7.078;2022-12-29T23:10:03;7.60;99.90
35613;DHT22;22054;51.646;7.078;2022-12-29T23:12:29;7.50;99.90
35613;DHT22;22054;51.646;7.078;2022-12-29T23:14:55;7.50;99.90
35613;DHT22;22054;51.646;7.078;2022-12-29T23:17:21;7.50;99.90
35613;DHT22;22054;51.646;7.078;2022-12-29T23:19:47;7.50;99.90
35613;DHT22;22054;51.646;7.078;2022-12-29T23:22:13;7.40;99.90
35613;DHT22;22054;51.646;7.078;2022-12-29T23:24:39;7.40;99.90
35613;DHT22;22054;51.646;7.078;2022-12-29T23:27:04;7.70;99.90
35613;DHT22;22054;51.646;7.078;2022-12-29T23:29:30;7.40;99.90
35613;DHT22;22054;51.646;7.078;2022-12-29T23:31:56;7.60;99.90
35613;DHT22;22054;51.646;7.078;2022-12-29T23:34:22;7.40;99.90
35613;DHT22;22054;51.646;7.078;2022-12-29T23:36:47;7.40;99.90
35613;DHT22;22054;51.646;7.078;2022-12-29T23:39:20;7.40;99.90
35613;DHT22;22054;51.646;7.078;2022-12-29T23:41:48;7.50;99.90
35613;DHT22;22054;51.646;7.078;2022-12-29T23:44:15;7.50;99.90
35613;DHT22;22054;51.646;7.078;2022-12-29T23:46:41;7.50;99.90
35613;DHT22;22054;51.646;7.078;2022-12-29T23:49:08;7.60;99.90
35613;DHT22;22054;51.646;7.078;2022-12-29T23:51:34;7.50;99.90
35613;DHT22;22054;51.646;7.078;2022-12-29T23:54:00;7.50;99.90
35613;DHT22;22054;51.646;7.078;2022-12-29T23:56:25;7.50;99.90
35613;DHT22;22054;51.646;7.078;2022-12-29T23:58:51;7.50;99.90
